sensor_id;sensor_type;location;lat;lon;timestamp;P1;durP1;ratioP1;P2;durP2;ratioP2
51792;SDS011;37850;53.178;6.376;2023-04-03T00:01:39;5.15;;;1.20;;
51792;SDS011;37850;53.178;6.376;2023-04-03T00:04:05;3.42;;;1.00;;
51792;SDS011;37850;53.178;6.376;2023-04-03T00:06:31;2.67;;;1.00;;
51792;SDS011;37850;53.178;6.376;2023-04-03T00:08:57;5.68;;;1.27;;
51792;SDS011;37850;53.178;6.376;2023-04-03T00:11:23;4.18;;;1.10;;
51792;SDS011;37850;53.178;6.376;2023-04-03T00:13:53;3.67;;;0.93;;
51792;SDS011;37850;53.178;6.376;2023-04-03T00:16:19;2.90;;;0.82;;
51792;SDS011;37850;53.178;6.376;2023-04-03T00:18:45;2.08;;;0.70;;
51792;SDS011;37850;53.178;6.376;2023-04-03T00:21:12;4.57;;;1.10;;
51792;SDS011;37850;53.178;6.376;2023-04-03T00:23:38;3.72;;;1.15;;
51792;SDS011;37850;53.178;6.376;2023-04-03T00:26:04;3.78;;;1.23;;
51792;SDS011;37850;53.178;6.376;2023-04-03T00:28:30;3.78;;;1.40;;
51792;SDS011;37850;53.178;6.376;2023-04-03T00:30:56;6.05;;;1.10;;
51792;SDS011;37850;53.178;6.376;2023-04-03T00:33:21;6.32;;;1.10;;
51792;SDS011;37850;53.178;6.376;2023-04-03T00:35:47;4.20;;;1.20;;
51792;SDS011;37850;53.178;6.376;2023-04-03T00:38:13;2.17;;;0.73;;
51792;SDS011;37850;53.178;6.376;2023-04-03T00:40:42;4.07;;;0.98;;
51792;SDS011;37850;53.178;6.376;2023-04-03T00:43:13;6.80;;;1.42;;
51792;SDS011;37850;53.178;6.376;2023-04-03T00:45:48;3.75;;;0.93;;
51792;SDS011;37850;53.178;6.376;2023-04-03T00:48:19;6.43;;;1.20;;
51792;SDS011;37850;53.178;6.376;2023-04-03T00:50:48;4.75;;;1.10;;
51792;SDS011;37850;53.178;6.376;2023-04-03T00:53:16;3.05;;;1.30;;
51792;SDS011;37850;53.178;6.376;2023-04-03T00:55:46;5.15;;;1.27;;
51792;SDS011;37850;53.178;6.376;2023-04-03T00:58:13;4.18;;;1.13;;
51792;SDS011;37850;53.178;6.376;2023-04-03T01:00:41;3.78;;;1.08;;
51792;SDS011;37850;53.178;6.376;2023-04-03T01:03:11;5.38;;;1.10;;
51792;SDS011;37850;53.178;6.376;2023-04-03T01:05:37;2.95;;;0.85;;
51792;SDS011;37850;53.178;6.376;2023-04-03T01:08:03;4.90;;;1.00;;
51792;SDS011;37850;53.178;6.376;2023-04-03T01:10:29;4.28;;;1.10;;
51792;SDS011;37850;53.178;6.376;2023-04-03T01:12:55;4.15;;;1.08;;
51792;SDS011;37850;53.178;6.376;2023-04-03T01:15:25;4.05;;;1.00;;
51792;SDS011;37850;53.178;6.376;2023-04-03T01:17:54;6.80;;;1.23;;
51792;SDS011;37850;53.178;6.376;2023-04-03T01:25:38;4.65;;;1.00;;
51792;SDS011;37850;53.178;6.376;2023-04-03T01:28:05;7.20;;;1.20;;
51792;SDS011;37850;53.178;6.376;2023-04-03T01:30:38;4.43;;;1.20;;
51792;SDS011;37850;53.178;6.376;2023-04-03T01:33:11;5.88;;;1.13;;
51792;SDS011;37850;53.178;6.376;2023-04-03T01:35:37;5.50;;;1.00;;
51792;SDS011;37850;53.178;6.376;2023-04-03T01:38:03;3.97;;;0.90;;
51792;SDS011;37850;53.178;6.376;2023-04-03T01:40:29;8.38;;;1.42;;
51792;SDS011;37850;53.178;6.376;2023-04-03T01:42:55;4.20;;;0.95;;
51792;SDS011;37850;53.178;6.376;2023-04-03T01:45:21;5.18;;;1.10;;
51792;SDS011;37850;53.178;6.376;2023-04-03T01:47:47;3.00;;;1.08;;
51792;SDS011;37850;53.178;6.376;2023-04-03T01:50:12;5.88;;;1.33;;
51792;SDS011;37850;53.178;6.376;2023-04-03T01:52:38;4.80;;;1.10;;
51792;SDS011;37850;53.178;6.376;2023-04-03T01:55:04;4.95;;;0.93;;
51792;SDS011;37850;53.178;6.376;2023-04-03T01:57:30;4.45;;;1.25;;
51792;SDS011;37850;53.178;6.376;2023-04-03T01:59:56;7.07;;;1.70;;
51792;SDS011;37850;53.178;6.376;2023-04-03T02:02:22;6.38;;;1.33;;
51792;SDS011;37850;53.178;6.376;2023-04-03T02:04:47;6.50;;;1.38;;
51792;SDS011;37850;53.178;6.376;2023-04-03T02:07:13;6.60;;;1.30;;
51792;SDS011;37850;53.178;6.376;2023-04-03T02:09:39;3.63;;;1.08;;
51792;SDS011;37850;53.178;6.376;2023-04-03T02:12:04;4.88;;;1.17;;
51792;SDS011;37850;53.178;6.376;2023-04-03T02:14:30;4.95;;;1.38;;
51792;SDS011;37850;53.178;6.376;2023-04-03T02:16:56;4.35;;;1.20;;
51792;SDS011;37850;53.178;6.376;2023-04-03T02:19:22;6.00;;;1.02;;
51792;SDS011;37850;53.178;6.376;2023-04-03T02:21:47;5.90;;;1.25;;
51792;SDS011;37850;53.178;6.376;2023-04-03T02:24:13;8.00;;;1.80;;
51792;SDS011;37850;53.178;6.376;2023-04-03T02:26:39;7.72;;;1.58;;
51792;SDS011;37850;53.178;6.376;2023-04-03T02:29:05;8.73;;;1.27;;
51792;SDS011;37850;53.178;6.376;2023-04-03T02:31:30;5.10;;;1.02;;
51792;SDS011;37850;53.178;6.376;2023-04-03T02:33:56;3.33;;;0.93;;
51792;SDS011;37850;53.178;6.376;2023-04-03T02:36:22;5.40;;;1.30;;
51792;SDS011;37850;53.178;6.376;2023-04-03T02:38:48;7.60;;;1.70;;
51792;SDS011;37850;53.178;6.376;2023-04-03T02:41:16;5.55;;;1.60;;
51792;SDS011;37850;53.178;6.376;2023-04-03T02:43:42;4.28;;;1.08;;
51792;SDS011;37850;53.178;6.376;2023-04-03T02:46:08;5.78;;;1.40;;
51792;SDS011;37850;53.178;6.376;2023-04-03T02:48:34;7.13;;;1.20;;
51792;SDS011;37850;53.178;6.376;2023-04-03T02:51:00;8.13;;;1.45;;
51792;SDS011;37850;53.178;6.376;2023-04-03T02:53:26;5.70;;;1.50;;
51792;SDS011;37850;53.178;6.376;2023-04-03T02:55:51;4.88;;;1.40;;
51792;SDS011;37850;53.178;6.376;2023-04-03T02:58:17;5.53;;;1.30;;
51792;SDS011;37850;53.178;6.376;2023-04-03T03:00:43;3.50;;;1.25;;
51792;SDS011;37850;53.178;6.376;2023-04-03T03:03:08;5.95;;;1.92;;
51792;SDS011;37850;53.178;6.376;2023-04-03T03:05:34;6.03;;;1.40;;
51792;SDS011;37850;53.178;6.376;2023-04-03T03:08:01;7.63;;;1.60;;
51792;SDS011;37850;53.178;6.376;2023-04-03T03:10:27;7.97;;;1.63;;
51792;SDS011;37850;53.178;6.376;2023-04-03T03:12:52;5.70;;;1.30;;
51792;SDS011;37850;53.178;6.376;2023-04-03T03:15:18;9.10;;;1.60;;
51792;SDS011;37850;53.178;6.376;2023-04-03T03:17:44;7.22;;;1.48;;
51792;SDS011;37850;53.178;6.376;2023-04-03T03:20:10;5.95;;;1.33;;
51792;SDS011;37850;53.178;6.376;2023-04-03T03:22:37;9.70;;;1.75;;
51792;SDS011;37850;53.178;6.376;2023-04-03T03:25:03;6.07;;;1.30;;
51792;SDS011;37850;53.178;6.376;2023-04-03T03:27:29;7.47;;;1.63;;
51792;SDS011;37850;53.178;6.376;2023-04-03T03:29:55;8.88;;;1.83;;
51792;SDS011;37850;53.178;6.376;2023-04-03T03:32:20;9.13;;;1.70;;
51792;SDS011;37850;53.178;6.376;2023-04-03T03:34:46;6.25;;;1.90;;
51792;SDS011;37850;53.178;6.376;2023-04-03T03:37:12;7.25;;;1.60;;
51792;SDS011;37850;53.178;6.376;2023-04-03T03:39:37;7.78;;;1.88;;
51792;SDS011;37850;53.178;6.376;2023-04-03T03:42:03;7.50;;;1.70;;
51792;SDS011;37850;53.178;6.376;2023-04-03T03:44:29;7.13;;;1.85;;
51792;SDS011;37850;53.178;6.376;2023-04-03T03:46:55;7.28;;;1.70;;
51792;SDS011;37850;53.178;6.376;2023-04-03T03:49:21;8.65;;;1.65;;
51792;SDS011;37850;53.178;6.376;2023-04-03T03:51:47;10.48;;;1.75;;
51792;SDS011;37850;53.178;6.376;2023-04-03T03:54:13;5.15;;;1.42;;
51792;SDS011;37850;53.178;6.376;2023-04-03T03:56:39;7.60;;;1.90;;
51792;SDS011;37850;53.178;6.376;2023-04-03T03:59:05;6.30;;;1.75;;
51792;SDS011;37850;53.178;6.376;2023-04-03T04:01:31;10.00;;;1.48;;
51792;SDS011;37850;53.178;6.376;2023-04-03T04:03:57;10.13;;;2.00;;
51792;SDS011;37850;53.178;6.376;2023-04-03T04:06:23;7.85;;;1.60;;
51792;SDS011;37850;53.178;6.376;2023-04-03T04:08:49;7.35;;;1.67;;
51792;SDS011;37850;53.178;6.376;2023-04-03T04:11:15;6.10;;;1.45;;
51792;SDS011;37850;53.178;6.376;2023-04-03T04:13:41;8.32;;;1.75;;
51792;SDS011;37850;53.178;6.376;2023-04-03T04:16:07;10.82;;;1.85;;
51792;SDS011;37850;53.178;6.376;2023-04-03T04:18:33;7.53;;;1.75;;
51792;SDS011;37850;53.178;6.376;2023-04-03T04:20:59;7.40;;;1.83;;
51792;SDS011;37850;53.178;6.376;2023-04-03T04:23:25;9.32;;;1.85;;
51792;SDS011;37850;53.178;6.376;2023-04-03T04:25:50;9.40;;;2.05;;
51792;SDS011;37850;53.178;6.376;2023-04-03T04:28:16;11.52;;;1.92;;
51792;SDS011;37850;53.178;6.376;2023-04-03T04:30:42;8.05;;;1.70;;
51792;SDS011;37850;53.178;6.376;2023-04-03T04:33:08;11.15;;;2.15;;
51792;SDS011;37850;53.178;6.376;2023-04-03T04:35:35;7.50;;;1.92;;
51792;SDS011;37850;53.178;6.376;2023-04-03T04:38:00;8.82;;;1.98;;
51792;SDS011;37850;53.178;6.376;2023-04-03T04:40:26;6.85;;;1.83;;
51792;SDS011;37850;53.178;6.376;2023-04-03T04:42:52;7.18;;;1.63;;
51792;SDS011;37850;53.178;6.376;2023-04-03T04:45:18;9.30;;;2.20;;
51792;SDS011;37850;53.178;6.376;2023-04-03T04:47:44;12.30;;;2.45;;
51792;SDS011;37850;53.178;6.376;2023-04-03T04:50:11;9.75;;;2.22;;
51792;SDS011;37850;53.178;6.376;2023-04-03T04:52:38;8.48;;;2.13;;
51792;SDS011;37850;53.178;6.376;2023-04-03T04:55:04;6.32;;;1.70;;
51792;SDS011;37850;53.178;6.376;2023-04-03T04:57:30;9.43;;;2.15;;
51792;SDS011;37850;53.178;6.376;2023-04-03T04:59:56;9.30;;;2.13;;
51792;SDS011;37850;53.178;6.376;2023-04-03T05:02:22;5.57;;;2.00;;
51792;SDS011;37850;53.178;6.376;2023-04-03T05:04:47;8.85;;;1.95;;
51792;SDS011;37850;53.178;6.376;2023-04-03T05:07:15;9.15;;;1.92;;
51792;SDS011;37850;53.178;6.376;2023-04-03T05:09:41;7.53;;;2.13;;
51792;SDS011;37850;53.178;6.376;2023-04-03T05:12:07;8.77;;;2.30;;
51792;SDS011;37850;53.178;6.376;2023-04-03T05:14:33;7.68;;;2.03;;
51792;SDS011;37850;53.178;6.376;2023-04-03T05:16:58;7.07;;;2.58;;
51792;SDS011;37850;53.178;6.376;2023-04-03T05:19:24;8.98;;;2.53;;
51792;SDS011;37850;53.178;6.376;2023-04-03T05:21:50;10.50;;;2.00;;
51792;SDS011;37850;53.178;6.376;2023-04-03T05:24:16;7.85;;;2.05;;
51792;SDS011;37850;53.178;6.376;2023-04-03T05:26:42;11.55;;;2.53;;
51792;SDS011;37850;53.178;6.376;2023-04-03T05:29:08;7.75;;;1.92;;
51792;SDS011;37850;53.178;6.376;2023-04-03T05:31:34;12.40;;;2.38;;
51792;SDS011;37850;53.178;6.376;2023-04-03T05:34:00;8.95;;;1.83;;
51792;SDS011;37850;53.178;6.376;2023-04-03T05:36:26;8.57;;;2.28;;
51792;SDS011;37850;53.178;6.376;2023-04-03T05:38:52;8.75;;;2.17;;
51792;SDS011;37850;53.178;6.376;2023-04-03T05:41:18;9.50;;;2.67;;
51792;SDS011;37850;53.178;6.376;2023-04-03T05:43:46;7.95;;;2.13;;
51792;SDS011;37850;53.178;6.376;2023-04-03T05:46:12;8.05;;;2.10;;
51792;SDS011;37850;53.178;6.376;2023-04-03T05:48:40;8.18;;;2.15;;
51792;SDS011;37850;53.178;6.376;2023-04-03T05:51:06;10.85;;;2.75;;
51792;SDS011;37850;53.178;6.376;2023-04-03T05:53:38;8.93;;;2.40;;
51792;SDS011;37850;53.178;6.376;2023-04-03T05:56:04;9.32;;;2.70;;
51792;SDS011;37850;53.178;6.376;2023-04-03T05:58:30;8.32;;;2.53;;
51792;SDS011;37850;53.178;6.376;2023-04-03T06:00:56;13.88;;;3.03;;
51792;SDS011;37850;53.178;6.376;2023-04-03T06:03:22;8.23;;;2.30;;
51792;SDS011;37850;53.178;6.376;2023-04-03T06:05:48;11.35;;;2.45;;
51792;SDS011;37850;53.178;6.376;2023-04-03T06:08:14;8.52;;;2.97;;
51792;SDS011;37850;53.178;6.376;2023-04-03T06:10:40;11.00;;;2.90;;
51792;SDS011;37850;53.178;6.376;2023-04-03T06:13:06;8.68;;;2.80;;
51792;SDS011;37850;53.178;6.376;2023-04-03T06:15:32;10.55;;;2.45;;
51792;SDS011;37850;53.178;6.376;2023-04-03T06:17:58;10.65;;;2.83;;
51792;SDS011;37850;53.178;6.376;2023-04-03T06:20:25;13.25;;;2.63;;
51792;SDS011;37850;53.178;6.376;2023-04-03T06:22:50;11.75;;;2.70;;
51792;SDS011;37850;53.178;6.376;2023-04-03T06:25:16;9.63;;;2.67;;
51792;SDS011;37850;53.178;6.376;2023-04-03T06:27:44;8.07;;;2.47;;
51792;SDS011;37850;53.178;6.376;2023-04-03T06:30:10;9.18;;;2.55;;
51792;SDS011;37850;53.178;6.376;2023-04-03T06:32:36;8.05;;;2.38;;
51792;SDS011;37850;53.178;6.376;2023-04-03T06:35:03;8.50;;;1.90;;
51792;SDS011;37850;53.178;6.376;2023-04-03T06:37:29;9.10;;;2.25;;
51792;SDS011;37850;53.178;6.376;2023-04-03T06:39:56;7.88;;;2.17;;
51792;SDS011;37850;53.178;6.376;2023-04-03T06:42:22;11.25;;;2.53;;
51792;SDS011;37850;53.178;6.376;2023-04-03T06:44:48;10.70;;;2.67;;
51792;SDS011;37850;53.178;6.376;2023-04-03T06:47:14;7.63;;;2.05;;
51792;SDS011;37850;53.178;6.376;2023-04-03T06:49:41;9.77;;;2.13;;
51792;SDS011;37850;53.178;6.376;2023-04-03T06:52:08;10.13;;;2.20;;
51792;SDS011;37850;53.178;6.376;2023-04-03T06:54:35;8.32;;;2.50;;
51792;SDS011;37850;53.178;6.376;2023-04-03T06:57:01;11.27;;;2.25;;
51792;SDS011;37850;53.178;6.376;2023-04-03T06:59:27;6.57;;;1.88;;
51792;SDS011;37850;53.178;6.376;2023-04-03T07:01:53;6.25;;;1.80;;
51792;SDS011;37850;53.178;6.376;2023-04-03T07:04:19;9.85;;;2.40;;
51792;SDS011;37850;53.178;6.376;2023-04-03T07:06:48;7.10;;;2.42;;
51792;SDS011;37850;53.178;6.376;2023-04-03T07:09:14;7.50;;;2.20;;
51792;SDS011;37850;53.178;6.376;2023-04-03T07:11:40;7.63;;;2.15;;
51792;SDS011;37850;53.178;6.376;2023-04-03T07:14:06;8.50;;;1.83;;
51792;SDS011;37850;53.178;6.376;2023-04-03T07:16:33;8.30;;;1.83;;
51792;SDS011;37850;53.178;6.376;2023-04-03T07:19:00;5.10;;;1.67;;
51792;SDS011;37850;53.178;6.376;2023-04-03T07:21:26;10.05;;;1.90;;
51792;SDS011;37850;53.178;6.376;2023-04-03T07:23:53;8.05;;;2.00;;
51792;SDS011;37850;53.178;6.376;2023-04-03T07:26:22;7.10;;;1.92;;
51792;SDS011;37850;53.178;6.376;2023-04-03T07:28:48;8.73;;;2.22;;
51792;SDS011;37850;53.178;6.376;2023-04-03T07:31:17;7.13;;;1.70;;
51792;SDS011;37850;53.178;6.376;2023-04-03T07:33:43;5.97;;;1.73;;
51792;SDS011;37850;53.178;6.376;2023-04-03T07:36:11;6.22;;;1.35;;
51792;SDS011;37850;53.178;6.376;2023-04-03T07:38:41;7.65;;;1.60;;
51792;SDS011;37850;53.178;6.376;2023-04-03T07:41:06;10.85;;;1.90;;
51792;SDS011;37850;53.178;6.376;2023-04-03T07:43:38;7.22;;;1.80;;
51792;SDS011;37850;53.178;6.376;2023-04-03T07:46:05;7.60;;;2.00;;
51792;SDS011;37850;53.178;6.376;2023-04-03T07:48:31;4.93;;;1.45;;
51792;SDS011;37850;53.178;6.376;2023-04-03T07:51:01;9.38;;;2.13;;
51792;SDS011;37850;53.178;6.376;2023-04-03T07:53:28;5.68;;;1.50;;
51792;SDS011;37850;53.178;6.376;2023-04-03T07:55:53;10.18;;;2.30;;
51792;SDS011;37850;53.178;6.376;2023-04-03T07:58:22;8.75;;;1.50;;
51792;SDS011;37850;53.178;6.376;2023-04-03T08:00:47;4.20;;;1.75;;
51792;SDS011;37850;53.178;6.376;2023-04-03T08:03:14;8.40;;;2.03;;
51792;SDS011;37850;53.178;6.376;2023-04-03T08:05:44;8.75;;;1.45;;
51792;SDS011;37850;53.178;6.376;2023-04-03T08:08:12;6.85;;;2.03;;
51792;SDS011;37850;53.178;6.376;2023-04-03T08:10:39;7.53;;;1.65;;
51792;SDS011;37850;53.178;6.376;2023-04-03T08:13:05;3.47;;;1.30;;
51792;SDS011;37850;53.178;6.376;2023-04-03T08:15:32;5.72;;;1.23;;
51792;SDS011;37850;53.178;6.376;2023-04-03T08:17:58;10.25;;;1.70;;
51792;SDS011;37850;53.178;6.376;2023-04-03T08:20:26;6.25;;;1.70;;
51792;SDS011;37850;53.178;6.376;2023-04-03T08:22:52;7.22;;;1.40;;
51792;SDS011;37850;53.178;6.376;2023-04-03T08:25:18;7.07;;;1.58;;
51792;SDS011;37850;53.178;6.376;2023-04-03T08:27:47;6.55;;;1.52;;
51792;SDS011;37850;53.178;6.376;2023-04-03T08:30:13;5.03;;;1.60;;
51792;SDS011;37850;53.178;6.376;2023-04-03T08:32:39;8.25;;;1.92;;
51792;SDS011;37850;53.178;6.376;2023-04-03T08:35:07;6.97;;;1.98;;
51792;SDS011;37850;53.178;6.376;2023-04-03T08:37:34;6.30;;;1.45;;
51792;SDS011;37850;53.178;6.376;2023-04-03T08:40:02;9.43;;;1.50;;
51792;SDS011;37850;53.178;6.376;2023-04-03T08:42:44;5.78;;;1.48;;
51792;SDS011;37850;53.178;6.376;2023-04-03T08:48:05;7.85;;;1.95;;
51792;SDS011;37850;53.178;6.376;2023-04-03T08:50:41;7.43;;;1.85;;
51792;SDS011;37850;53.178;6.376;2023-04-03T08:53:16;5.70;;;1.40;;
51792;SDS011;37850;53.178;6.376;2023-04-03T08:55:46;7.88;;;1.42;;
51792;SDS011;37850;53.178;6.376;2023-04-03T09:03:18;5.88;;;1.42;;
51792;SDS011;37850;53.178;6.376;2023-04-03T09:05:52;8.63;;;1.48;;
51792;SDS011;37850;53.178;6.376;2023-04-03T09:08:29;4.50;;;1.23;;
51792;SDS011;37850;53.178;6.376;2023-04-03T09:13:33;5.70;;;1.50;;
51792;SDS011;37850;53.178;6.376;2023-04-03T09:16:06;4.60;;;1.48;;
51792;SDS011;37850;53.178;6.376;2023-04-03T09:19:13;5.88;;;1.15;;
51792;SDS011;37850;53.178;6.376;2023-04-03T09:21:47;4.60;;;1.25;;
51792;SDS011;37850;53.178;6.376;2023-04-03T09:24:13;4.90;;;1.30;;
51792;SDS011;37850;53.178;6.376;2023-04-03T09:26:46;7.80;;;1.35;;
51792;SDS011;37850;53.178;6.376;2023-04-03T09:29:19;6.57;;;1.52;;
51792;SDS011;37850;53.178;6.376;2023-04-03T09:31:48;5.03;;;1.45;;
51792;SDS011;37850;53.178;6.376;2023-04-03T09:36:54;4.28;;;1.30;;
51792;SDS011;37850;53.178;6.376;2023-04-03T09:39:22;6.35;;;2.08;;
51792;SDS011;37850;53.178;6.376;2023-04-03T09:44:26;4.40;;;1.35;;
51792;SDS011;37850;53.178;6.376;2023-04-03T09:46:55;5.13;;;1.10;;
51792;SDS011;37850;53.178;6.376;2023-04-03T09:49:20;4.18;;;1.02;;
51792;SDS011;37850;53.178;6.376;2023-04-03T09:51:46;5.38;;;1.05;;
51792;SDS011;37850;53.178;6.376;2023-04-03T09:54:32;2.88;;;0.98;;
51792;SDS011;37850;53.178;6.376;2023-04-03T09:57:07;3.63;;;1.15;;
51792;SDS011;37850;53.178;6.376;2023-04-03T09:59:36;3.47;;;1.17;;
51792;SDS011;37850;53.178;6.376;2023-04-03T10:04:41;4.97;;;1.25;;
51792;SDS011;37850;53.178;6.376;2023-04-03T10:07:30;7.05;;;1.38;;
51792;SDS011;37850;53.178;6.376;2023-04-03T10:10:03;4.07;;;1.38;;
51792;SDS011;37850;53.178;6.376;2023-04-03T10:12:43;2.78;;;1.15;;
51792;SDS011;37850;53.178;6.376;2023-04-03T10:15:14;5.32;;;1.48;;
51792;SDS011;37850;53.178;6.376;2023-04-03T10:17:49;3.42;;;0.90;;
51792;SDS011;37850;53.178;6.376;2023-04-03T10:25:52;3.85;;;1.23;;
51792;SDS011;37850;53.178;6.376;2023-04-03T10:33:50;4.88;;;1.25;;
51792;SDS011;37850;53.178;6.376;2023-04-03T10:36:34;4.07;;;0.95;;
51792;SDS011;37850;53.178;6.376;2023-04-03T10:44:42;5.38;;;0.80;;
51792;SDS011;37850;53.178;6.376;2023-04-03T10:53:16;3.08;;;0.82;;
51792;SDS011;37850;53.178;6.376;2023-04-03T10:58:48;4.88;;;0.98;;
51792;SDS011;37850;53.178;6.376;2023-04-03T11:01:20;2.90;;;0.80;;
51792;SDS011;37850;53.178;6.376;2023-04-03T11:03:51;2.35;;;0.90;;
51792;SDS011;37850;53.178;6.376;2023-04-03T11:09:00;1.95;;;0.60;;
51792;SDS011;37850;53.178;6.376;2023-04-03T11:11:37;1.38;;;0.63;;
51792;SDS011;37850;53.178;6.376;2023-04-03T11:14:09;3.65;;;1.10;;
51792;SDS011;37850;53.178;6.376;2023-04-03T11:16:48;5.13;;;1.00;;
51792;SDS011;37850;53.178;6.376;2023-04-03T11:19:46;2.03;;;0.68;;
51792;SDS011;37850;53.178;6.376;2023-04-03T11:24:59;3.33;;;0.80;;
51792;SDS011;37850;53.178;6.376;2023-04-03T11:27:41;3.50;;;0.85;;
51792;SDS011;37850;53.178;6.376;2023-04-03T11:30:18;1.83;;;0.50;;
51792;SDS011;37850;53.178;6.376;2023-04-03T11:35:26;5.18;;;1.27;;
51792;SDS011;37850;53.178;6.376;2023-04-03T11:37:53;4.70;;;0.90;;
51792;SDS011;37850;53.178;6.376;2023-04-03T11:40:28;2.75;;;0.95;;
51792;SDS011;37850;53.178;6.376;2023-04-03T11:50:47;3.63;;;0.95;;
51792;SDS011;37850;53.178;6.376;2023-04-03T11:58:17;3.30;;;1.05;;
51792;SDS011;37850;53.178;6.376;2023-04-03T12:05:49;7.07;;;1.13;;
51792;SDS011;37850;53.178;6.376;2023-04-03T12:16:28;3.33;;;0.90;;
51792;SDS011;37850;53.178;6.376;2023-04-03T12:19:04;4.57;;;1.00;;
51792;SDS011;37850;53.178;6.376;2023-04-03T12:24:27;1.65;;;0.75;;
51792;SDS011;37850;53.178;6.376;2023-04-03T12:32:09;4.28;;;1.00;;
51792;SDS011;37850;53.178;6.376;2023-04-03T12:43:09;3.97;;;1.02;;
51792;SDS011;37850;53.178;6.376;2023-04-03T12:45:46;3.13;;;0.80;;
51792;SDS011;37850;53.178;6.376;2023-04-03T12:48:17;5.10;;;0.80;;
51792;SDS011;37850;53.178;6.376;2023-04-03T12:50:50;2.58;;;0.73;;
51792;SDS011;37850;53.178;6.376;2023-04-03T12:53:18;2.05;;;0.75;;
51792;SDS011;37850;53.178;6.376;2023-04-03T12:55:47;2.22;;;0.77;;
51792;SDS011;37850;53.178;6.376;2023-04-03T12:58:26;3.80;;;1.00;;
51792;SDS011;37850;53.178;6.376;2023-04-03T13:03:29;2.05;;;0.80;;
51792;SDS011;37850;53.178;6.376;2023-04-03T13:06:02;4.57;;;1.05;;
51792;SDS011;37850;53.178;6.376;2023-04-03T13:08:28;3.42;;;1.35;;
51792;SDS011;37850;53.178;6.376;2023-04-03T13:11:00;4.78;;;1.23;;
51792;SDS011;37850;53.178;6.376;2023-04-03T13:13:28;4.78;;;1.17;;
51792;SDS011;37850;53.178;6.376;2023-04-03T13:15:54;4.95;;;1.40;;
51792;SDS011;37850;53.178;6.376;2023-04-03T13:18:24;2.70;;;0.70;;
51792;SDS011;37850;53.178;6.376;2023-04-03T13:20:52;2.30;;;0.80;;
51792;SDS011;37850;53.178;6.376;2023-04-03T13:23:22;3.67;;;0.93;;
51792;SDS011;37850;53.178;6.376;2023-04-03T13:25:48;7.38;;;1.10;;
51792;SDS011;37850;53.178;6.376;2023-04-03T13:28:18;5.18;;;1.17;;
51792;SDS011;37850;53.178;6.376;2023-04-03T13:33:53;4.20;;;1.00;;
51792;SDS011;37850;53.178;6.376;2023-04-03T13:36:25;3.63;;;0.93;;
51792;SDS011;37850;53.178;6.376;2023-04-03T13:39:05;2.63;;;0.80;;
51792;SDS011;37850;53.178;6.376;2023-04-03T13:41:50;2.72;;;0.93;;
51792;SDS011;37850;53.178;6.376;2023-04-03T13:44:39;3.53;;;0.98;;
51792;SDS011;37850;53.178;6.376;2023-04-03T13:49:40;5.38;;;1.20;;
51792;SDS011;37850;53.178;6.376;2023-04-03T13:52:28;3.83;;;1.10;;
51792;SDS011;37850;53.178;6.376;2023-04-03T13:55:02;2.60;;;1.05;;
51792;SDS011;37850;53.178;6.376;2023-04-03T13:57:53;4.95;;;1.23;;
51792;SDS011;37850;53.178;6.376;2023-04-03T14:00:26;3.15;;;1.00;;
51792;SDS011;37850;53.178;6.376;2023-04-03T14:02:56;3.00;;;0.98;;
51792;SDS011;37850;53.178;6.376;2023-04-03T14:05:23;4.30;;;1.15;;
51792;SDS011;37850;53.178;6.376;2023-04-03T14:07:50;3.67;;;1.02;;
51792;SDS011;37850;53.178;6.376;2023-04-03T14:10:19;3.20;;;0.80;;
51792;SDS011;37850;53.178;6.376;2023-04-03T14:12:46;4.00;;;0.98;;
51792;SDS011;37850;53.178;6.376;2023-04-03T14:15:22;2.63;;;0.65;;
51792;SDS011;37850;53.178;6.376;2023-04-03T14:17:50;3.17;;;1.27;;
51792;SDS011;37850;53.178;6.376;2023-04-03T14:20:18;2.58;;;1.15;;
51792;SDS011;37850;53.178;6.376;2023-04-03T14:22:46;5.47;;;1.15;;
51792;SDS011;37850;53.178;6.376;2023-04-03T14:25:13;5.22;;;1.17;;
51792;SDS011;37850;53.178;6.376;2023-04-03T14:27:44;4.32;;;1.15;;
51792;SDS011;37850;53.178;6.376;2023-04-03T14:30:15;3.72;;;1.10;;
51792;SDS011;37850;53.178;6.376;2023-04-03T14:32:53;3.55;;;1.23;;
51792;SDS011;37850;53.178;6.376;2023-04-03T14:35:20;5.22;;;1.63;;
51792;SDS011;37850;53.178;6.376;2023-04-03T14:37:49;6.03;;;1.33;;
51792;SDS011;37850;53.178;6.376;2023-04-03T14:40:23;4.82;;;1.25;;
51792;SDS011;37850;53.178;6.376;2023-04-03T14:42:54;6.43;;;1.30;;
51792;SDS011;37850;53.178;6.376;2023-04-03T14:45:22;4.68;;;1.25;;
51792;SDS011;37850;53.178;6.376;2023-04-03T14:47:50;7.20;;;1.50;;
51792;SDS011;37850;53.178;6.376;2023-04-03T14:50:19;5.50;;;1.63;;
51792;SDS011;37850;53.178;6.376;2023-04-03T14:52:47;6.40;;;1.40;;
51792;SDS011;37850;53.178;6.376;2023-04-03T14:55:16;5.57;;;1.20;;
51792;SDS011;37850;53.178;6.376;2023-04-03T14:57:43;7.55;;;1.15;;
51792;SDS011;37850;53.178;6.376;2023-04-03T15:00:13;4.47;;;1.20;;
51792;SDS011;37850;53.178;6.376;2023-04-03T15:02:42;2.95;;;1.27;;
51792;SDS011;37850;53.178;6.376;2023-04-03T15:05:09;5.43;;;1.30;;
51792;SDS011;37850;53.178;6.376;2023-04-03T15:07:38;4.18;;;1.13;;
51792;SDS011;37850;53.178;6.376;2023-04-03T15:12:46;7.10;;;1.40;;
51792;SDS011;37850;53.178;6.376;2023-04-03T15:15:13;3.45;;;1.10;;
51792;SDS011;37850;53.178;6.376;2023-04-03T15:17:40;4.80;;;0.90;;
51792;SDS011;37850;53.178;6.376;2023-04-03T15:20:15;2.80;;;0.82;;
51792;SDS011;37850;53.178;6.376;2023-04-03T15:22:43;4.93;;;1.13;;
51792;SDS011;37850;53.178;6.376;2023-04-03T15:25:09;3.90;;;1.10;;
51792;SDS011;37850;53.178;6.376;2023-04-03T15:27:35;5.32;;;1.00;;
51792;SDS011;37850;53.178;6.376;2023-04-03T15:30:03;4.13;;;1.17;;
51792;SDS011;37850;53.178;6.376;2023-04-03T15:32:30;5.60;;;1.02;;
51792;SDS011;37850;53.178;6.376;2023-04-03T15:34:56;4.45;;;1.13;;
51792;SDS011;37850;53.178;6.376;2023-04-03T15:37:22;7.80;;;1.40;;
51792;SDS011;37850;53.178;6.376;2023-04-03T15:39:48;5.65;;;1.17;;
51792;SDS011;37850;53.178;6.376;2023-04-03T15:42:17;3.65;;;0.90;;
51792;SDS011;37850;53.178;6.376;2023-04-03T15:44:43;2.20;;;0.80;;
51792;SDS011;37850;53.178;6.376;2023-04-03T15:47:09;2.28;;;0.55;;
51792;SDS011;37850;53.178;6.376;2023-04-03T15:49:34;3.67;;;0.80;;
51792;SDS011;37850;53.178;6.376;2023-04-03T15:52:01;3.67;;;1.00;;
51792;SDS011;37850;53.178;6.376;2023-04-03T15:54:27;2.45;;;0.60;;
51792;SDS011;37850;53.178;6.376;2023-04-03T15:56:54;3.70;;;0.98;;
51792;SDS011;37850;53.178;6.376;2023-04-03T15:59:20;5.45;;;0.77;;
51792;SDS011;37850;53.178;6.376;2023-04-03T16:01:46;3.95;;;0.88;;
51792;SDS011;37850;53.178;6.376;2023-04-03T16:04:12;4.25;;;1.13;;
51792;SDS011;37850;53.178;6.376;2023-04-03T16:06:38;3.25;;;0.70;;
51792;SDS011;37850;53.178;6.376;2023-04-03T16:09:04;4.63;;;1.40;;
51792;SDS011;37850;53.178;6.376;2023-04-03T16:11:31;6.03;;;1.10;;
51792;SDS011;37850;53.178;6.376;2023-04-03T16:13:57;4.43;;;0.88;;
51792;SDS011;37850;53.178;6.376;2023-04-03T16:16:23;3.38;;;0.90;;
51792;SDS011;37850;53.178;6.376;2023-04-03T16:18:53;6.50;;;1.30;;
51792;SDS011;37850;53.178;6.376;2023-04-03T16:21:20;3.33;;;0.77;;
51792;SDS011;37850;53.178;6.376;2023-04-03T16:23:47;6.07;;;1.00;;
51792;SDS011;37850;53.178;6.376;2023-04-03T16:26:13;4.10;;;1.00;;
51792;SDS011;37850;53.178;6.376;2023-04-03T16:28:39;3.10;;;0.82;;
51792;SDS011;37850;53.178;6.376;2023-04-03T16:31:06;2.58;;;0.60;;
51792;SDS011;37850;53.178;6.376;2023-04-03T16:33:33;5.15;;;1.05;;
51792;SDS011;37850;53.178;6.376;2023-04-03T16:35:59;6.95;;;1.20;;
51792;SDS011;37850;53.178;6.376;2023-04-03T16:38:25;4.38;;;1.38;;
51792;SDS011;37850;53.178;6.376;2023-04-03T16:40:54;3.90;;;0.88;;
51792;SDS011;37850;53.178;6.376;2023-04-03T16:43:22;3.42;;;1.02;;